createdAt,value
2023-04-12T00:00:15.735Z,7.72
2023-04-12T00:03:31.865Z,7.73
2023-04-12T00:06:40.775Z,7.29
2023-04-12T00:09:49.620Z,7.63
2023-04-12T00:13:04.753Z,7.61
2023-04-12T00:16:20.392Z,7.58
2023-04-12T00:19:28.764Z,7.49
2023-04-12T00:22:43.765Z,7.54
2023-04-12T00:25:51.781Z,7.48
2023-04-12T00:29:06.737Z,7.48
2023-04-12T00:32:08.604Z,7.47
2023-04-12T00:35:23.740Z,7.47
2023-04-12T00:38:25.672Z,7.49
2023-04-12T00:41:43.767Z,7.36
2023-04-12T00:48:56.810Z,7.30
2023-04-12T00:52:14.804Z,7.27
2023-04-12T00:55:29.771Z,7.26
2023-04-12T00:58:44.764Z,7.19
2023-04-12T01:01:52.795Z,7.14
2023-04-12T01:05:02.765Z,7.12
2023-04-12T01:08:14.744Z,7.16
2023-04-12T01:11:50.759Z,7.13
2023-04-12T01:15:12.758Z,7.12
2023-04-12T01:18:25.166Z,7.13
2023-04-12T01:21:51.786Z,7.14
2023-04-12T01:25:09.420Z,7.09
2023-04-12T01:28:22.751Z,7.11
2023-04-12T01:31:32.906Z,7.08
2023-04-12T01:34:43.745Z,7.03
2023-04-12T01:37:53.374Z,7.07
2023-04-12T01:41:02.795Z,6.97
2023-04-12T01:44:18.574Z,6.97
2023-04-12T01:47:34.779Z,7.00
2023-04-12T01:51:02.753Z,7.01
2023-04-12T01:54:15.757Z,6.96
2023-04-12T02:01:46.814Z,7.01
2023-04-12T02:04:55.960Z,6.88
2023-04-12T02:08:04.774Z,6.86
2023-04-12T02:11:14.096Z,6.83
2023-04-12T02:14:22.735Z,6.82
2023-04-12T02:17:37.831Z,6.81
2023-04-12T02:20:46.742Z,6.81
2023-04-12T02:24:02.761Z,6.84
2023-04-12T02:27:04.741Z,6.82
2023-04-12T02:30:19.779Z,6.84
2023-04-12T02:33:29.111Z,6.76
2023-04-12T02:36:43.835Z,6.70
2023-04-12T02:39:58.753Z,6.73
2023-04-12T02:43:07.774Z,6.70
2023-04-12T02:46:28.860Z,6.62
2023-04-12T02:49:37.357Z,6.52
2023-04-12T02:52:45.736Z,6.62
2023-04-12T02:55:54.274Z,6.67
2023-04-12T02:59:02.756Z,6.68
2023-04-12T03:02:11.391Z,6.68
2023-04-12T03:05:26.786Z,6.71
2023-04-12T03:08:41.769Z,6.70
2023-04-12T03:11:50.302Z,6.61
2023-04-12T03:14:58.774Z,6.66
2023-04-12T03:18:07.355Z,6.64
2023-04-12T03:21:15.741Z,6.55
2023-04-12T03:24:24.388Z,6.58
2023-04-12T03:27:32.725Z,6.59
2023-04-12T03:30:47.762Z,6.63
2023-04-12T03:34:02.740Z,6.62
2023-04-12T03:37:10.840Z,6.65
2023-04-12T03:40:19.504Z,6.68
2023-04-12T03:43:41.757Z,6.69
2023-04-12T03:46:50.772Z,6.71
2023-04-12T03:50:11.480Z,6.67
2023-04-12T03:53:27.733Z,6.68
2023-04-12T03:56:35.737Z,6.64
2023-04-12T03:59:44.326Z,6.65
2023-04-12T04:02:53.818Z,6.67
2023-04-12T04:06:02.755Z,6.71
2023-04-12T04:09:17.750Z,6.70
2023-04-12T04:12:26.774Z,6.75
2023-04-12T04:15:35.355Z,6.72
2023-04-12T04:18:52.018Z,6.71
2023-04-12T04:22:06.756Z,6.72
2023-04-12T04:25:16.243Z,6.75
2023-04-12T04:28:30.760Z,6.88
2023-04-12T04:31:45.775Z,7.10
2023-04-12T04:35:03.814Z,6.95
2023-04-12T04:38:12.754Z,6.84
2023-04-12T04:41:27.760Z,7.00
2023-04-12T04:44:42.756Z,7.15
2023-04-12T04:47:57.801Z,7.21
2023-04-12T04:51:13.746Z,7.13
2023-04-12T04:54:21.751Z,7.27
2023-04-12T04:57:30.365Z,7.31
2023-04-12T05:00:44.754Z,7.52
2023-04-12T05:03:52.870Z,7.41
2023-04-12T05:07:01.303Z,7.58
2023-04-12T05:10:10.750Z,7.57
2023-04-12T05:13:19.925Z,7.41
2023-04-12T05:16:34.811Z,7.59
2023-04-12T05:19:36.924Z,7.79
2023-04-12T05:22:51.738Z,7.78
2023-04-12T05:26:07.743Z,7.82
2023-04-12T05:29:28.749Z,7.84
2023-04-12T05:32:37.685Z,7.92
2023-04-12T05:35:52.783Z,7.99
2023-04-12T05:39:07.754Z,8.00
2023-04-12T05:42:22.743Z,8.10
2023-04-12T05:45:37.765Z,8.19
2023-04-12T05:48:46.326Z,8.25
2023-04-12T05:51:54.754Z,8.40
2023-04-12T05:55:03.623Z,8.36
2023-04-12T05:58:18.761Z,8.52
2023-04-12T06:01:20.648Z,8.60
2023-04-12T06:07:50.552Z,8.84
2023-04-12T06:10:58.792Z,8.80
2023-04-12T06:14:14.862Z,9.02
2023-04-12T06:17:24.095Z,9.25
2023-04-12T06:20:34.810Z,9.32
2023-04-12T06:23:49.786Z,9.27
2023-04-12T06:26:51.634Z,9.14
2023-04-12T06:30:06.778Z,9.35
2023-04-12T06:33:15.767Z,9.32
2023-04-12T06:36:24.307Z,9.48
2023-04-12T06:39:38.916Z,9.68
2023-04-12T06:42:41.040Z,9.72
2023-04-12T06:46:02.784Z,9.96
2023-04-12T06:49:10.787Z,9.68
2023-04-12T06:52:19.450Z,9.95
2023-04-12T06:55:34.733Z,10.26
2023-04-12T06:58:36.703Z,10.43
2023-04-12T07:05:46.852Z,10.78
2023-04-12T07:08:55.605Z,10.97
2023-04-12T07:12:04.775Z,11.01
2023-04-12T07:15:13.423Z,11.21
2023-04-12T07:18:28.906Z,11.26
2023-04-12T07:21:38.754Z,11.46
2023-04-12T07:24:49.589Z,11.39
2023-04-12T07:27:58.734Z,11.74
2023-04-12T07:31:14.973Z,11.95
2023-04-12T07:38:21.765Z,12.33
2023-04-12T07:41:36.751Z,12.37
2023-04-12T07:44:40.535Z,12.91
2023-04-12T07:47:57.362Z,12.89
2023-04-12T07:51:08.134Z,13.23
2023-04-12T07:54:16.759Z,13.02
2023-04-12T07:57:33.639Z,13.40
2023-04-12T08:00:43.485Z,13.41
2023-04-12T08:03:51.864Z,13.62
2023-04-12T08:07:00.984Z,13.92
2023-04-12T08:10:15.735Z,13.65
2023-04-12T08:13:30.816Z,13.95
2023-04-12T08:16:39.510Z,13.97
2023-04-12T08:19:54.884Z,14.46
2023-04-12T08:23:03.567Z,14.65
2023-04-12T08:26:18.735Z,14.44
2023-04-12T08:29:33.761Z,14.62
2023-04-12T08:32:42.465Z,14.81
2023-04-12T08:35:50.839Z,14.81
2023-04-12T08:39:07.763Z,14.62
2023-04-12T08:42:23.030Z,14.72
2023-04-12T08:45:39.300Z,15.15
2023-04-12T08:48:56.776Z,15.55
2023-04-12T08:52:15.607Z,15.88
2023-04-12T08:55:21.535Z,15.61
2023-04-12T08:58:37.750Z,15.87
2023-04-12T09:01:53.862Z,15.92
2023-04-12T09:05:08.782Z,16.06
2023-04-12T09:08:17.804Z,16.39
2023-04-12T09:11:28.276Z,16.14
2023-04-12T09:14:42.782Z,16.10
2023-04-12T09:18:17.358Z,16.16
2023-04-12T09:21:25.782Z,16.48
2023-04-12T09:24:46.535Z,16.43
2023-04-12T09:28:02.813Z,16.70
2023-04-12T09:31:05.222Z,16.79
2023-04-12T09:34:20.258Z,16.97
2023-04-12T09:37:35.763Z,17.08
2023-04-12T09:40:50.805Z,17.24
2023-04-12T09:44:00.019Z,17.11
2023-04-12T09:47:14.776Z,17.30
2023-04-12T09:50:32.783Z,17.36
2023-04-12T09:53:48.304Z,17.41
2023-04-12T09:56:57.738Z,17.45
2023-04-12T10:00:15.790Z,17.18
2023-04-12T10:03:25.459Z,16.83
2023-04-12T10:06:34.801Z,17.03
2023-04-12T10:09:49.769Z,17.28
2023-04-12T10:13:05.814Z,17.88
2023-04-12T10:16:16.504Z,17.87
2023-04-12T10:19:32.788Z,18.01
2023-04-12T10:22:49.766Z,17.81
2023-04-12T10:25:58.796Z,16.72
2023-04-12T10:29:29.047Z,16.88
2023-04-12T10:32:37.847Z,17.73
2023-04-12T10:36:09.810Z,17.38
2023-04-12T10:39:18.618Z,17.49
2023-04-12T10:42:37.370Z,17.79
2023-04-12T10:45:52.370Z,17.73
2023-04-12T10:49:17.848Z,18.04
2023-04-12T10:52:26.672Z,18.12
2023-04-12T10:55:41.822Z,17.62
2023-04-12T10:58:57.217Z,17.57
2023-04-12T11:02:11.873Z,18.11
2023-04-12T11:05:26.824Z,17.94
2023-04-12T11:08:36.762Z,18.43
2023-04-12T11:11:51.792Z,17.49
2023-04-12T11:15:08.794Z,17.50
2023-04-12T11:18:17.924Z,17.64
2023-04-12T11:21:32.812Z,18.19
2023-04-12T11:24:45.778Z,17.69
2023-04-12T11:28:01.842Z,17.81
2023-04-12T11:31:10.822Z,17.94
2023-04-12T11:34:20.309Z,17.25
2023-04-12T11:37:37.777Z,17.44
2023-04-12T11:40:54.914Z,17.34
2023-04-12T11:44:00.320Z,17.79
2023-04-12T11:47:25.864Z,17.51
2023-04-12T11:50:29.682Z,17.25
2023-04-12T11:53:45.788Z,17.43
2023-04-12T11:56:57.412Z,17.89
2023-04-12T12:00:12.778Z,17.93
2023-04-12T12:03:21.714Z,17.42
2023-04-12T12:06:31.390Z,17.01
2023-04-12T12:09:49.013Z,17.06
2023-04-12T12:12:58.100Z,17.32
2023-04-12T12:16:13.844Z,17.52
2023-04-12T12:19:15.706Z,17.53
2023-04-12T12:22:30.794Z,17.34
2023-04-12T12:27:07.512Z,17.73
2023-04-12T12:29:27.812Z,17.60
2023-04-12T12:32:38.927Z,17.79
2023-04-12T12:40:19.800Z,17.81
2023-04-12T12:43:34.815Z,17.90
2023-04-12T12:46:56.804Z,17.95
2023-04-12T12:50:11.505Z,18.10
2023-04-12T13:01:22.926Z,18.13
2023-04-12T13:04:38.104Z,18.03
2023-04-12T13:07:40.330Z,18.13
2023-04-12T13:10:55.848Z,18.28
2023-04-12T13:14:04.828Z,17.92
2023-04-12T13:17:14.195Z,17.91
2023-04-12T13:20:30.131Z,17.69
2023-04-12T13:46:38.958Z,17.51
2023-04-12T13:49:47.533Z,17.36
2023-04-12T13:52:55.876Z,17.36
2023-04-12T13:56:04.651Z,17.47
2023-04-12T13:59:12.867Z,17.25
2023-04-12T14:02:21.570Z,17.25
2023-04-12T14:05:29.831Z,17.10
2023-04-12T14:08:46.457Z,17.01
2023-04-12T14:12:05.852Z,17.28
2023-04-12T14:15:20.856Z,17.27
2023-04-12T14:18:29.830Z,17.10
2023-04-12T14:21:38.539Z,17.12
2023-04-12T14:24:53.877Z,17.28
2023-04-12T14:27:55.721Z,17.02
2023-04-12T14:31:10.886Z,17.11
2023-04-12T14:34:12.926Z,17.12
2023-04-12T14:37:27.834Z,17.24
2023-04-12T14:40:43.812Z,17.17
2023-04-12T14:43:45.742Z,17.18
2023-04-12T14:47:07.859Z,16.97
2023-04-12T14:50:16.840Z,17.00
2023-04-12T14:53:31.921Z,16.94
2023-04-12T14:56:50.137Z,16.90
2023-04-12T15:00:00.913Z,17.00
2023-04-12T15:03:15.963Z,16.86
2023-04-12T15:06:30.898Z,16.65
2023-04-12T15:09:33.141Z,16.65
2023-04-12T15:12:47.830Z,16.60
2023-04-12T15:15:56.458Z,16.71
2023-04-12T15:19:17.190Z,16.47
2023-04-12T15:22:32.870Z,16.64
2023-04-12T15:25:34.842Z,16.37
2023-04-12T15:28:49.870Z,16.43
2023-04-12T15:32:04.917Z,16.58
2023-04-12T15:38:24.914Z,16.77
2023-04-12T15:41:34.960Z,16.73
2023-04-12T15:44:50.842Z,16.57
2023-04-12T15:47:58.887Z,16.62
2023-04-12T15:51:14.142Z,16.43
2023-04-12T15:54:23.857Z,16.50
2023-04-12T15:57:39.893Z,16.44
2023-04-12T16:00:55.092Z,16.32
2023-04-12T16:04:10.977Z,16.31
2023-04-12T16:07:19.755Z,16.17
2023-04-12T16:10:28.845Z,16.08
2023-04-12T16:13:37.578Z,16.15
2023-04-12T16:20:44.860Z,16.02
2023-04-12T16:23:59.841Z,15.89
2023-04-12T16:27:01.872Z,15.80
2023-04-12T16:30:17.922Z,15.71
2023-04-12T16:33:26.848Z,15.64
2023-04-12T16:36:34.889Z,15.52
2023-04-12T16:39:45.816Z,15.51
2023-04-12T16:43:01.198Z,15.31
2023-04-12T16:46:11.886Z,15.26
2023-04-12T16:49:20.418Z,15.16
2023-04-12T16:52:35.176Z,15.06
2023-04-12T16:55:47.298Z,15.02
2023-04-12T16:59:03.025Z,14.93
2023-04-12T17:02:18.366Z,14.84
2023-04-12T17:05:30.263Z,14.80
2023-04-12T17:09:06.868Z,14.72
2023-04-12T17:12:21.917Z,14.58
2023-04-12T17:15:31.537Z,14.51
2023-04-12T17:18:47.143Z,14.41
2023-04-12T17:21:50.830Z,14.35
2023-04-12T17:25:05.871Z,14.26
2023-04-12T17:28:08.202Z,14.20
2023-04-12T17:31:24.259Z,14.12
2023-04-12T17:34:27.365Z,14.05
2023-04-12T17:37:43.327Z,13.88
2023-04-12T17:40:59.163Z,13.83
2023-04-12T17:44:02.074Z,13.71
2023-04-12T17:47:23.921Z,13.56
2023-04-12T17:50:39.457Z,13.45
2023-04-12T17:53:42.263Z,13.36
2023-04-12T17:56:58.310Z,13.22
2023-04-12T18:00:01.659Z,13.10
2023-04-12T18:03:18.387Z,13.02
2023-04-12T18:06:29.382Z,12.91
2023-04-12T18:09:51.649Z,12.81
2023-04-12T18:13:08.318Z,12.66
2023-04-12T18:16:11.163Z,12.44
2023-04-12T18:19:26.303Z,12.35
2023-04-12T18:22:43.593Z,12.25
2023-04-12T18:25:53.309Z,12.13
2023-04-12T18:29:09.343Z,11.95
2023-04-12T18:32:24.997Z,11.85
2023-04-12T18:35:40.354Z,11.69
2023-04-12T18:38:52.314Z,11.58
2023-04-12T18:42:07.503Z,11.58
2023-04-12T18:45:17.355Z,11.55
2023-04-12T18:48:36.684Z,11.50
2023-04-12T18:51:48.883Z,11.40
2023-04-12T18:55:05.420Z,11.32
2023-04-12T18:58:08.430Z,11.20
2023-04-12T19:01:23.390Z,11.07
2023-04-12T19:04:38.371Z,10.98
2023-04-12T19:07:48.438Z,10.91
2023-04-12T19:11:04.553Z,10.77
2023-04-12T19:14:14.429Z,10.71
2023-04-12T19:17:23.347Z,10.75
2023-04-12T19:20:35.463Z,10.72
2023-04-12T19:23:45.047Z,10.68
2023-04-12T19:26:54.455Z,10.60
2023-04-12T19:30:10.907Z,10.54
2023-04-12T19:33:20.377Z,10.53
2023-04-12T19:36:29.412Z,10.50
2023-04-12T19:39:39.404Z,10.53
2023-04-12T19:42:48.050Z,10.51
2023-04-12T19:45:56.930Z,10.44
2023-04-12T19:49:12.779Z,10.37
2023-04-12T19:52:29.431Z,10.26
2023-04-12T19:55:32.484Z,10.16
2023-04-12T19:58:47.879Z,10.15
2023-04-12T20:02:03.373Z,10.14
2023-04-12T20:05:12.405Z,10.24
2023-04-12T20:08:22.366Z,10.26
2023-04-12T20:11:31.038Z,10.25
2023-04-12T20:14:39.876Z,10.24
2023-04-12T20:17:55.435Z,10.20
2023-04-12T20:21:05.097Z,10.11
2023-04-12T20:24:14.286Z,10.02
2023-04-12T20:27:31.009Z,9.93
2023-04-12T20:30:41.804Z,9.94
2023-04-12T20:33:57.361Z,9.88
2023-04-12T20:37:15.746Z,9.81
2023-04-12T20:40:34.384Z,9.76
2023-04-12T20:43:52.394Z,9.71
2023-04-12T20:46:54.470Z,9.64
2023-04-12T20:50:16.190Z,9.55
2023-04-12T20:53:18.358Z,9.46
2023-04-12T20:56:32.887Z,9.43
2023-04-12T20:59:42.285Z,9.37
2023-04-12T21:02:58.044Z,9.23
2023-04-12T21:06:08.776Z,9.34
2023-04-12T21:09:23.886Z,9.34
2023-04-12T21:12:25.752Z,9.36
2023-04-12T21:15:40.931Z,9.34
2023-04-12T21:18:48.882Z,9.29
2023-04-12T21:22:06.937Z,9.25
2023-04-12T21:25:15.699Z,9.23
2023-04-12T21:28:23.906Z,9.08
2023-04-12T21:31:32.644Z,9.14
2023-04-12T21:34:47.874Z,9.09
2023-04-12T21:37:57.877Z,9.12
2023-04-12T21:41:13.866Z,9.09
2023-04-12T21:44:22.555Z,8.99
2023-04-12T21:47:46.925Z,8.98
2023-04-12T21:51:01.884Z,8.98
2023-04-12T21:54:10.888Z,8.94
2023-04-12T21:57:19.660Z,8.93
2023-04-12T22:00:28.877Z,8.86
2023-04-12T22:03:43.988Z,8.77
2023-04-12T22:06:52.508Z,8.79
2023-04-12T22:10:00.889Z,8.77
2023-04-12T22:13:09.862Z,8.76
2023-04-12T22:16:18.934Z,8.78
2023-04-12T22:19:28.281Z,8.81
2023-04-12T22:22:36.897Z,8.85
2023-04-12T22:25:45.623Z,8.87
2023-04-12T22:28:53.881Z,8.87
2023-04-12T22:32:08.905Z,8.88
2023-04-12T22:35:11.030Z,8.86
2023-04-12T22:38:25.884Z,8.80
2023-04-12T22:41:35.149Z,8.87
2023-04-12T22:44:43.883Z,8.90
2023-04-12T22:48:05.886Z,8.87
2023-04-12T22:51:15.053Z,8.80
2023-04-12T22:54:30.940Z,8.77
2023-04-12T22:57:39.465Z,8.72
2023-04-12T23:00:47.883Z,8.76
2023-04-12T23:04:02.915Z,8.80
2023-04-12T23:07:11.505Z,8.83
2023-04-12T23:10:25.898Z,8.88
2023-04-12T23:13:38.057Z,8.97
2023-04-12T23:16:46.521Z,9.05
2023-04-12T23:19:54.906Z,9.12
2023-04-12T23:23:10.884Z,9.16
2023-04-12T23:26:19.518Z,9.18
2023-04-12T23:29:27.907Z,9.16
2023-04-12T23:32:36.690Z,9.28
2023-04-12T23:35:45.877Z,9.27
2023-04-12T23:38:54.574Z,9.34
2023-04-12T23:42:02.897Z,9.33
2023-04-12T23:45:24.883Z,9.37
2023-04-12T23:48:39.897Z,9.45
2023-04-12T23:51:55.933Z,9.50
2023-04-12T23:55:04.799Z,9.40
2023-04-12T23:58:12.935Z,9.51
